sensor_id;sensor_type;location;lat;lon;timestamp;temperature;humidity
55812;DHT22;41742;52.048;6.092;2022-11-30T00:00:25;7.40;99.90
55812;DHT22;41742;52.048;6.092;2022-11-30T00:02:51;7.40;99.90
55812;DHT22;41742;52.048;6.092;2022-11-30T00:05:20;7.40;99.90
55812;DHT22;41742;52.048;6.092;2022-11-30T00:07:47;7.40;99.90
55812;DHT22;41742;52.048;6.092;2022-11-30T00:10:14;7.40;99.90
55812;DHT22;41742;52.048;6.092;2022-11-30T00:12:39;7.40;99.90
55812;DHT22;41742;52.048;6.092;2022-11-30T00:15:09;7.40;99.90
55812;DHT22;41742;52.048;6.092;2022-11-30T00:17:36;7.40;99.90
55812;DHT22;41742;52.048;6.092;2022-11-30T00:20:02;7.40;99.90
55812;DHT22;41742;52.048;6.092;2022-11-30T00:22:28;7.40;99.90
55812;DHT22;41742;52.048;6.092;2022-11-30T00:24:53;7.40;99.90
55812;DHT22;41742;52.048;6.092;2022-11-30T00:27:19;7.40;99.90
55812;DHT22;41742;52.048;6.092;2022-11-30T00:29:44;7.40;99.90
55812;DHT22;41742;52.048;6.092;2022-11-30T00:32:10;7.30;99.90
55812;DHT22;41742;52.048;6.092;2022-11-30T00:34:36;7.30;99.90
55812;DHT22;41742;52.048;6.092;2022-11-30T00:37:01;7.30;99.90
55812;DHT22;41742;52.048;6.092;2022-11-30T00:39:27;7.30;99.90
55812;DHT22;41742;52.048;6.092;2022-11-30T00:41:52;7.30;99.90
55812;DHT22;41742;52.048;6.092;2022-11-30T00:44:18;7.30;99.90
55812;DHT22;41742;52.048;6.092;2022-11-30T00:46:43;7.30;99.90
55812;DHT22;41742;52.048;6.092;2022-11-30T00:49:09;7.30;99.90
55812;DHT22;41742;52.048;6.092;2022-11-30T00:51:34;7.20;99.90
55812;DHT22;41742;52.048;6.092;2022-11-30T00:54:00;7.20;99.90
55812;DHT22;41742;52.048;6.092;2022-11-30T00:56:26;7.20;99.90
55812;DHT22;41742;52.048;6.092;2022-11-30T00:58:51;7.20;99.90
55812;DHT22;41742;52.048;6.092;2022-11-30T01:01:17;7.10;99.90
55812;DHT22;41742;52.048;6.092;2022-11-30T01:03:42;7.10;99.90
55812;DHT22;41742;52.048;6.092;2022-11-30T01:06:08;7.10;99.90
55812;DHT22;41742;52.048;6.092;2022-11-30T01:08:34;7.10;99.90
55812;DHT22;41742;52.048;6.092;2022-11-30T01:11:13;7.10;99.90
55812;DHT22;41742;52.048;6.092;2022-11-30T01:13:39;7.00;99.90
55812;DHT22;41742;52.048;6.092;2022-11-30T01:16:16;7.00;99.90
55812;DHT22;41742;52.048;6.092;2022-11-30T01:18:43;7.00;99.90
55812;DHT22;41742;52.048;6.092;2022-11-30T01:21:10;7.00;99.90
55812;DHT22;41742;52.048;6.092;2022-11-30T01:23:38;7.00;99.90
55812;DHT22;41742;52.048;6.092;2022-11-30T01:26:05;6.90;99.90
55812;DHT22;41742;52.048;6.092;2022-11-30T01:28:30;6.90;99.90
55812;DHT22;41742;52.048;6.092;2022-11-30T01:31:01;6.90;99.90
55812;DHT22;41742;52.048;6.092;2022-11-30T01:33:27;6.90;99.90
55812;DHT22;41742;52.048;6.092;2022-11-30T01:36:12;6.80;99.90
55812;DHT22;41742;52.048;6.092;2022-11-30T01:38:41;6.80;99.90
55812;DHT22;41742;52.048;6.092;2022-11-30T01:41:09;6.80;99.90
55812;DHT22;41742;52.048;6.092;2022-11-30T01:46:37;6.80;99.90
55812;DHT22;41742;52.048;6.092;2022-11-30T01:51:39;6.80;99.90
55812;DHT22;41742;52.048;6.092;2022-11-30T01:54:11;6.80;99.90
55812;DHT22;41742;52.048;6.092;2022-11-30T01:56:40;6.80;99.90
55812;DHT22;41742;52.048;6.092;2022-11-30T01:59:08;6.80;99.90
55812;DHT22;41742;52.048;6.092;2022-11-30T02:01:34;6.80;99.90
55812;DHT22;41742;52.048;6.092;2022-11-30T02:04:22;6.80;99.90
55812;DHT22;41742;52.048;6.092;2022-11-30T02:06:49;6.80;99.90
55812;DHT22;41742;52.048;6.092;2022-11-30T02:09:17;6.80;99.90
55812;DHT22;41742;52.048;6.092;2022-11-30T02:11:44;6.80;99.90
55812;DHT22;41742;52.048;6.092;2022-11-30T02:14:19;6.80;99.90
55812;DHT22;41742;52.048;6.092;2022-11-30T02:17:10;6.70;99.90
55812;DHT22;41742;52.048;6.092;2022-11-30T02:25:02;6.70;99.90
55812;DHT22;41742;52.048;6.092;2022-11-30T02:30:36;6.60;99.90
55812;DHT22;41742;52.048;6.092;2022-11-30T02:33:07;6.60;99.90
55812;DHT22;41742;52.048;6.092;2022-11-30T02:35:36;6.60;99.90
55812;DHT22;41742;52.048;6.092;2022-11-30T02:38:03;6.50;99.90
55812;DHT22;41742;52.048;6.092;2022-11-30T02:40:29;6.60;99.90
55812;DHT22;41742;52.048;6.092;2022-11-30T02:42:57;6.50;99.90
55812;DHT22;41742;52.048;6.092;2022-11-30T02:45:43;6.50;99.90
55812;DHT22;41742;52.048;6.092;2022-11-30T02:48:16;6.50;99.90
55812;DHT22;41742;52.048;6.092;2022-11-30T02:50:53;6.50;99.90
55812;DHT22;41742;52.048;6.092;2022-11-30T02:53:21;6.50;99.90
55812;DHT22;41742;52.048;6.092;2022-11-30T02:55:47;6.50;99.90
55812;DHT22;41742;52.048;6.092;2022-11-30T02:58:14;6.50;99.90
55812;DHT22;41742;52.048;6.092;2022-11-30T03:00:40;6.50;99.90
55812;DHT22;41742;52.048;6.092;2022-11-30T03:03:05;6.40;99.90
55812;DHT22;41742;52.048;6.092;2022-11-30T03:05:31;6.40;99.90
55812;DHT22;41742;52.048;6.092;2022-11-30T03:07:57;6.40;99.90
55812;DHT22;41742;52.048;6.092;2022-11-30T03:10:22;6.30;99.90
55812;DHT22;41742;52.048;6.092;2022-11-30T03:12:48;6.30;99.90
55812;DHT22;41742;52.048;6.092;2022-11-30T03:15:14;6.20;99.90
55812;DHT22;41742;52.048;6.092;2022-11-30T03:17:39;6.20;99.90
55812;DHT22;41742;52.048;6.092;2022-11-30T03:20:05;6.10;99.90
55812;DHT22;41742;52.048;6.092;2022-11-30T03:22:31;6.10;99.90
55812;DHT22;41742;52.048;6.092;2022-11-30T03:24:57;6.10;99.90
55812;DHT22;41742;52.048;6.092;2022-11-30T03:27:22;6.10;99.90
55812;DHT22;41742;52.048;6.092;2022-11-30T03:29:48;6.00;99.90
55812;DHT22;41742;52.048;6.092;2022-11-30T03:32:13;5.90;99.90
55812;DHT22;41742;52.048;6.092;2022-11-30T03:34:39;5.90;99.90
55812;DHT22;41742;52.048;6.092;2022-11-30T03:37:05;5.90;99.90
55812;DHT22;41742;52.048;6.092;2022-11-30T03:39:30;5.80;99.90
55812;DHT22;41742;52.048;6.092;2022-11-30T03:41:56;5.80;99.90
55812;DHT22;41742;52.048;6.092;2022-11-30T03:44:21;5.80;99.90
55812;DHT22;41742;52.048;6.092;2022-11-30T03:46:47;5.80;99.90
55812;DHT22;41742;52.048;6.092;2022-11-30T03:49:13;5.70;99.90
55812;DHT22;41742;52.048;6.092;2022-11-30T03:51:38;5.70;99.90
55812;DHT22;41742;52.048;6.092;2022-11-30T03:54:04;5.60;99.90
55812;DHT22;41742;52.048;6.092;2022-11-30T03:56:29;5.60;99.90
55812;DHT22;41742;52.048;6.092;2022-11-30T03:58:55;5.50;99.90
55812;DHT22;41742;52.048;6.092;2022-11-30T04:01:22;5.50;99.90
55812;DHT22;41742;52.048;6.092;2022-11-30T04:03:49;5.40;99.90
55812;DHT22;41742;52.048;6.092;2022-11-30T04:06:16;5.40;99.90
55812;DHT22;41742;52.048;6.092;2022-11-30T04:08:42;5.50;99.90
55812;DHT22;41742;52.048;6.092;2022-11-30T04:11:08;5.40;99.90
55812;DHT22;41742;52.048;6.092;2022-11-30T04:13:36;5.30;99.90
55812;DHT22;41742;52.048;6.092;2022-11-30T04:16:02;5.30;99.90
55812;DHT22;41742;52.048;6.092;2022-11-30T04:18:29;5.30;99.90
55812;DHT22;41742;52.048;6.092;2022-11-30T04:20:56;5.20;99.90
55812;DHT22;41742;52.048;6.092;2022-11-30T04:23:24;5.20;99.90
55812;DHT22;41742;52.048;6.092;2022-11-30T04:25:50;5.20;99.90
55812;DHT22;41742;52.048;6.092;2022-11-30T04:28:17;5.20;99.90
55812;DHT22;41742;52.048;6.092;2022-11-30T04:30:43;5.10;99.90
55812;DHT22;41742;52.048;6.092;2022-11-30T04:33:11;5.10;99.90
55812;DHT22;41742;52.048;6.092;2022-11-30T04:35:40;5.00;99.90
55812;DHT22;41742;52.048;6.092;2022-11-30T04:38:06;5.00;99.90
55812;DHT22;41742;52.048;6.092;2022-11-30T04:40:31;5.00;99.90
55812;DHT22;41742;52.048;6.092;2022-11-30T04:42:57;4.90;99.90
55812;DHT22;41742;52.048;6.092;2022-11-30T04:45:22;4.90;99.90
55812;DHT22;41742;52.048;6.092;2022-11-30T04:47:48;4.90;99.90
55812;DHT22;41742;52.048;6.092;2022-11-30T04:50:14;4.80;99.90
55812;DHT22;41742;52.048;6.092;2022-11-30T04:52:39;4.70;99.90
55812;DHT22;41742;52.048;6.092;2022-11-30T04:55:05;4.70;99.90
55812;DHT22;41742;52.048;6.092;2022-11-30T04:57:31;4.70;99.90
55812;DHT22;41742;52.048;6.092;2022-11-30T04:59:56;4.70;99.90
55812;DHT22;41742;52.048;6.092;2022-11-30T05:02:22;4.60;99.90
55812;DHT22;41742;52.048;6.092;2022-11-30T05:04:48;4.60;99.90
55812;DHT22;41742;52.048;6.092;2022-11-30T05:07:13;4.50;99.90
55812;DHT22;41742;52.048;6.092;2022-11-30T05:09:39;4.50;99.90
55812;DHT22;41742;52.048;6.092;2022-11-30T05:12:04;4.40;99.90
55812;DHT22;41742;52.048;6.092;2022-11-30T05:14:30;4.40;99.90
55812;DHT22;41742;52.048;6.092;2022-11-30T05:16:56;4.40;99.90
55812;DHT22;41742;52.048;6.092;2022-11-30T05:19:21;4.40;99.90
55812;DHT22;41742;52.048;6.092;2022-11-30T05:21:47;4.30;99.90
55812;DHT22;41742;52.048;6.092;2022-11-30T05:24:13;4.20;99.90
55812;DHT22;41742;52.048;6.092;2022-11-30T05:26:38;4.20;99.90
55812;DHT22;41742;52.048;6.092;2022-11-30T05:29:05;4.30;99.90
55812;DHT22;41742;52.048;6.092;2022-11-30T05:31:31;4.30;99.90
55812;DHT22;41742;52.048;6.092;2022-11-30T05:33:56;4.20;99.90
55812;DHT22;41742;52.048;6.092;2022-11-30T05:36:22;4.30;99.90
55812;DHT22;41742;52.048;6.092;2022-11-30T05:38:48;4.30;99.90
55812;DHT22;41742;52.048;6.092;2022-11-30T05:41:14;4.20;99.90
55812;DHT22;41742;52.048;6.092;2022-11-30T05:43:39;4.20;99.90
55812;DHT22;41742;52.048;6.092;2022-11-30T05:46:07;4.20;99.90
55812;DHT22;41742;52.048;6.092;2022-11-30T05:48:33;4.30;99.90
55812;DHT22;41742;52.048;6.092;2022-11-30T05:51:07;4.30;99.90
55812;DHT22;41742;52.048;6.092;2022-11-30T05:53:33;4.20;99.90
55812;DHT22;41742;52.048;6.092;2022-11-30T05:56:16;4.20;99.90
55812;DHT22;41742;52.048;6.092;2022-11-30T05:58:42;4.20;99.90
55812;DHT22;41742;52.048;6.092;2022-11-30T06:01:17;4.20;99.90
55812;DHT22;41742;52.048;6.092;2022-11-30T06:03:43;4.20;99.90
55812;DHT22;41742;52.048;6.092;2022-11-30T06:06:08;4.10;99.90
55812;DHT22;41742;52.048;6.092;2022-11-30T06:08:34;4.00;99.90
55812;DHT22;41742;52.048;6.092;2022-11-30T06:11:00;4.00;99.90
55812;DHT22;41742;52.048;6.092;2022-11-30T06:13:25;4.10;99.90
55812;DHT22;41742;52.048;6.092;2022-11-30T06:15:51;4.10;99.90
55812;DHT22;41742;52.048;6.092;2022-11-30T06:18:17;4.10;99.90
55812;DHT22;41742;52.048;6.092;2022-11-30T06:20:42;4.00;99.90
55812;DHT22;41742;52.048;6.092;2022-11-30T06:23:08;4.00;99.90
55812;DHT22;41742;52.048;6.092;2022-11-30T06:25:33;4.00;99.90
55812;DHT22;41742;52.048;6.092;2022-11-30T06:27:59;4.00;99.90
55812;DHT22;41742;52.048;6.092;2022-11-30T06:30:24;3.90;99.90
55812;DHT22;41742;52.048;6.092;2022-11-30T06:32:51;3.70;99.90
55812;DHT22;41742;52.048;6.092;2022-11-30T06:35:17;3.60;99.90
55812;DHT22;41742;52.048;6.092;2022-11-30T06:37:43;3.70;99.90
55812;DHT22;41742;52.048;6.092;2022-11-30T06:40:10;3.70;99.90
55812;DHT22;41742;52.048;6.092;2022-11-30T06:42:37;3.70;99.90
55812;DHT22;41742;52.048;6.092;2022-11-30T06:45:04;3.80;99.90
55812;DHT22;41742;52.048;6.092;2022-11-30T06:47:30;3.80;99.90
55812;DHT22;41742;52.048;6.092;2022-11-30T06:49:56;3.80;99.90
55812;DHT22;41742;52.048;6.092;2022-11-30T06:52:22;3.80;99.90
55812;DHT22;41742;52.048;6.092;2022-11-30T06:54:48;3.80;99.90
55812;DHT22;41742;52.048;6.092;2022-11-30T06:57:13;3.70;99.90
55812;DHT22;41742;52.048;6.092;2022-11-30T06:59:39;3.60;99.90
55812;DHT22;41742;52.048;6.092;2022-11-30T07:02:11;3.70;99.90
55812;DHT22;41742;52.048;6.092;2022-11-30T07:04:37;3.60;99.90
55812;DHT22;41742;52.048;6.092;2022-11-30T07:07:02;3.60;99.90
55812;DHT22;41742;52.048;6.092;2022-11-30T07:09:28;3.50;99.90
55812;DHT22;41742;52.048;6.092;2022-11-30T07:11:54;3.50;99.90
55812;DHT22;41742;52.048;6.092;2022-11-30T07:14:19;3.60;99.90
55812;DHT22;41742;52.048;6.092;2022-11-30T07:16:45;3.70;99.90
55812;DHT22;41742;52.048;6.092;2022-11-30T07:19:10;3.70;99.90
55812;DHT22;41742;52.048;6.092;2022-11-30T07:21:36;3.60;99.90
55812;DHT22;41742;52.048;6.092;2022-11-30T07:24:02;3.60;99.90
55812;DHT22;41742;52.048;6.092;2022-11-30T07:26:46;3.80;99.90
55812;DHT22;41742;52.048;6.092;2022-11-30T07:29:11;3.80;99.90
55812;DHT22;41742;52.048;6.092;2022-11-30T07:31:37;3.80;99.90
55812;DHT22;41742;52.048;6.092;2022-11-30T07:34:08;4.00;99.90
55812;DHT22;41742;52.048;6.092;2022-11-30T07:36:34;4.00;99.90
55812;DHT22;41742;52.048;6.092;2022-11-30T07:39:00;4.10;99.90
55812;DHT22;41742;52.048;6.092;2022-11-30T07:41:26;4.10;99.90
55812;DHT22;41742;52.048;6.092;2022-11-30T07:43:52;4.00;99.90
55812;DHT22;41742;52.048;6.092;2022-11-30T07:46:18;4.00;99.90
55812;DHT22;41742;52.048;6.092;2022-11-30T07:48:44;4.00;99.90
55812;DHT22;41742;52.048;6.092;2022-11-30T07:51:18;4.00;99.90
55812;DHT22;41742;52.048;6.092;2022-11-30T07:53:45;4.10;99.90
55812;DHT22;41742;52.048;6.092;2022-11-30T07:56:13;4.10;99.90
55812;DHT22;41742;52.048;6.092;2022-11-30T07:58:40;4.10;99.90
55812;DHT22;41742;52.048;6.092;2022-11-30T08:01:09;4.10;99.90
55812;DHT22;41742;52.048;6.092;2022-11-30T08:03:35;4.20;99.90
55812;DHT22;41742;52.048;6.092;2022-11-30T08:06:06;4.20;99.90
55812;DHT22;41742;52.048;6.092;2022-11-30T08:08:34;4.20;99.90
55812;DHT22;41742;52.048;6.092;2022-11-30T08:11:01;4.20;99.90
55812;DHT22;41742;52.048;6.092;2022-11-30T08:13:27;4.40;99.90
55812;DHT22;41742;52.048;6.092;2022-11-30T08:15:53;4.40;99.90
55812;DHT22;41742;52.048;6.092;2022-11-30T08:18:19;4.50;99.90
55812;DHT22;41742;52.048;6.092;2022-11-30T08:20:44;4.50;99.90
55812;DHT22;41742;52.048;6.092;2022-11-30T08:23:10;4.50;99.90
55812;DHT22;41742;52.048;6.092;2022-11-30T08:25:36;4.60;99.90
55812;DHT22;41742;52.048;6.092;2022-11-30T08:28:02;4.60;99.90
55812;DHT22;41742;52.048;6.092;2022-11-30T08:30:28;4.60;99.90
55812;DHT22;41742;52.048;6.092;2022-11-30T08:32:55;4.70;99.90
55812;DHT22;41742;52.048;6.092;2022-11-30T08:35:21;4.80;99.90
55812;DHT22;41742;52.048;6.092;2022-11-30T08:37:47;4.80;99.90
55812;DHT22;41742;52.048;6.092;2022-11-30T08:40:12;4.90;99.90
55812;DHT22;41742;52.048;6.092;2022-11-30T08:42:38;4.90;99.90
55812;DHT22;41742;52.048;6.092;2022-11-30T08:45:04;5.00;99.90
55812;DHT22;41742;52.048;6.092;2022-11-30T08:47:30;5.00;99.90
55812;DHT22;41742;52.048;6.092;2022-11-30T08:49:56;5.00;99.90
55812;DHT22;41742;52.048;6.092;2022-11-30T08:52:23;5.10;99.90
55812;DHT22;41742;52.048;6.092;2022-11-30T08:54:49;5.10;99.90
55812;DHT22;41742;52.048;6.092;2022-11-30T08:57:16;5.10;99.90
55812;DHT22;41742;52.048;6.092;2022-11-30T08:59:42;5.10;99.90
55812;DHT22;41742;52.048;6.092;2022-11-30T09:02:10;5.20;99.90
55812;DHT22;41742;52.048;6.092;2022-11-30T09:04:35;5.20;99.90
55812;DHT22;41742;52.048;6.092;2022-11-30T09:07:01;5.20;99.90
55812;DHT22;41742;52.048;6.092;2022-11-30T09:09:28;5.30;99.90
55812;DHT22;41742;52.048;6.092;2022-11-30T09:11:54;5.30;99.90
55812;DHT22;41742;52.048;6.092;2022-11-30T09:14:19;5.30;99.90
55812;DHT22;41742;52.048;6.092;2022-11-30T09:16:45;5.30;99.90
55812;DHT22;41742;52.048;6.092;2022-11-30T09:19:11;5.30;99.90
55812;DHT22;41742;52.048;6.092;2022-11-30T09:21:36;5.40;99.90
55812;DHT22;41742;52.048;6.092;2022-11-30T09:24:02;5.40;99.90
55812;DHT22;41742;52.048;6.092;2022-11-30T09:26:27;5.40;99.90
55812;DHT22;41742;52.048;6.092;2022-11-30T09:28:53;5.40;99.90
55812;DHT22;41742;52.048;6.092;2022-11-30T09:31:21;5.40;99.90
55812;DHT22;41742;52.048;6.092;2022-11-30T09:33:48;5.50;99.90
55812;DHT22;41742;52.048;6.092;2022-11-30T09:36:16;5.50;99.90
55812;DHT22;41742;52.048;6.092;2022-11-30T09:38:42;5.50;99.90
55812;DHT22;41742;52.048;6.092;2022-11-30T09:46:53;5.60;99.90
55812;DHT22;41742;52.048;6.092;2022-11-30T09:49:23;5.60;99.90
55812;DHT22;41742;52.048;6.092;2022-11-30T09:51:52;5.60;99.90
55812;DHT22;41742;52.048;6.092;2022-11-30T09:54:25;5.70;99.90
55812;DHT22;41742;52.048;6.092;2022-11-30T09:57:04;5.60;99.90
55812;DHT22;41742;52.048;6.092;2022-11-30T09:59:37;5.70;99.90
55812;DHT22;41742;52.048;6.092;2022-11-30T10:02:14;5.70;99.90
55812;DHT22;41742;52.048;6.092;2022-11-30T10:04:41;5.70;99.90
55812;DHT22;41742;52.048;6.092;2022-11-30T10:12:52;5.90;99.90
55812;DHT22;41742;52.048;6.092;2022-11-30T10:17:56;5.90;99.90
55812;DHT22;41742;52.048;6.092;2022-11-30T10:26:40;5.90;99.90
55812;DHT22;41742;52.048;6.092;2022-11-30T10:29:19;6.00;99.90
55812;DHT22;41742;52.048;6.092;2022-11-30T10:31:47;6.10;99.90
55812;DHT22;41742;52.048;6.092;2022-11-30T10:34:23;6.10;99.90
55812;DHT22;41742;52.048;6.092;2022-11-30T10:36:53;6.20;99.90
55812;DHT22;41742;52.048;6.092;2022-11-30T10:39:51;6.20;99.90
55812;DHT22;41742;52.048;6.092;2022-11-30T10:42:45;6.30;99.90
55812;DHT22;41742;52.048;6.092;2022-11-30T10:45:20;6.40;99.90
55812;DHT22;41742;52.048;6.092;2022-11-30T10:50:35;6.50;99.90
55812;DHT22;41742;52.048;6.092;2022-11-30T10:53:01;6.50;99.90
55812;DHT22;41742;52.048;6.092;2022-11-30T10:55:34;6.60;99.90
55812;DHT22;41742;52.048;6.092;2022-11-30T10:58:26;6.70;99.90
55812;DHT22;41742;52.048;6.092;2022-11-30T11:01:08;6.80;99.90
55812;DHT22;41742;52.048;6.092;2022-11-30T11:03:34;6.80;99.90
55812;DHT22;41742;52.048;6.092;2022-11-30T11:06:19;6.90;99.90
55812;DHT22;41742;52.048;6.092;2022-11-30T11:08:46;7.00;99.90
55812;DHT22;41742;52.048;6.092;2022-11-30T11:11:26;7.10;99.90
55812;DHT22;41742;52.048;6.092;2022-11-30T11:14:08;7.10;99.90
55812;DHT22;41742;52.048;6.092;2022-11-30T11:17:00;7.20;99.90
55812;DHT22;41742;52.048;6.092;2022-11-30T11:22:03;7.30;99.90
55812;DHT22;41742;52.048;6.092;2022-11-30T11:24:30;7.30;99.90
55812;DHT22;41742;52.048;6.092;2022-11-30T11:26:56;7.30;99.90
55812;DHT22;41742;52.048;6.092;2022-11-30T11:29:30;7.30;99.90
55812;DHT22;41742;52.048;6.092;2022-11-30T11:32:15;7.30;99.90
55812;DHT22;41742;52.048;6.092;2022-11-30T11:34:43;7.30;99.90
55812;DHT22;41742;52.048;6.092;2022-11-30T11:40:03;7.30;99.90
55812;DHT22;41742;52.048;6.092;2022-11-30T11:42:34;7.20;99.90
55812;DHT22;41742;52.048;6.092;2022-11-30T11:45:01;7.20;99.90
55812;DHT22;41742;52.048;6.092;2022-11-30T11:47:39;7.40;99.90
55812;DHT22;41742;52.048;6.092;2022-11-30T11:50:29;7.60;99.90
55812;DHT22;41742;52.048;6.092;2022-11-30T11:53:19;7.60;99.90
55812;DHT22;41742;52.048;6.092;2022-11-30T11:56:35;7.60;99.90
55812;DHT22;41742;52.048;6.092;2022-11-30T11:58:44;7.50;99.90
55812;DHT22;41742;52.048;6.092;2022-11-30T12:01:22;7.50;99.90
55812;DHT22;41742;52.048;6.092;2022-11-30T12:06:43;7.50;99.90
55812;DHT22;41742;52.048;6.092;2022-11-30T12:09:19;7.50;99.90
55812;DHT22;41742;52.048;6.092;2022-11-30T12:11:47;7.60;99.90
55812;DHT22;41742;52.048;6.092;2022-11-30T12:14:15;7.70;99.90
55812;DHT22;41742;52.048;6.092;2022-11-30T12:19:53;7.60;99.90
55812;DHT22;41742;52.048;6.092;2022-11-30T12:25:19;7.60;99.90
55812;DHT22;41742;52.048;6.092;2022-11-30T12:38:57;7.50;99.90
55812;DHT22;41742;52.048;6.092;2022-11-30T12:42:06;7.50;99.90
55812;DHT22;41742;52.048;6.092;2022-11-30T12:44:43;7.40;99.90
55812;DHT22;41742;52.048;6.092;2022-11-30T12:50:16;7.40;99.90
55812;DHT22;41742;52.048;6.092;2022-11-30T12:58:39;7.40;99.90
55812;DHT22;41742;52.048;6.092;2022-11-30T13:06:56;7.30;99.90
55812;DHT22;41742;52.048;6.092;2022-11-30T13:09:28;7.30;99.90
55812;DHT22;41742;52.048;6.092;2022-11-30T13:12:26;7.30;99.90
55812;DHT22;41742;52.048;6.092;2022-11-30T13:15:02;7.30;99.90
55812;DHT22;41742;52.048;6.092;2022-11-30T13:17:29;7.30;99.90
55812;DHT22;41742;52.048;6.092;2022-11-30T13:20:24;7.30;99.90
55812;DHT22;41742;52.048;6.092;2022-11-30T13:22:57;7.40;99.90
55812;DHT22;41742;52.048;6.092;2022-11-30T13:25:43;7.40;99.90
55812;DHT22;41742;52.048;6.092;2022-11-30T13:28:30;7.40;99.90
55812;DHT22;41742;52.048;6.092;2022-11-30T13:31:19;7.40;99.90
55812;DHT22;41742;52.048;6.092;2022-11-30T13:41:46;7.30;99.90
55812;DHT22;41742;52.048;6.092;2022-11-30T13:44:29;7.20;99.90
55812;DHT22;41742;52.048;6.092;2022-11-30T13:46:56;7.20;99.90
55812;DHT22;41742;52.048;6.092;2022-11-30T13:49:27;7.20;99.90
55812;DHT22;41742;52.048;6.092;2022-11-30T13:51:53;7.30;99.90
55812;DHT22;41742;52.048;6.092;2022-11-30T13:54:45;7.20;99.90
55812;DHT22;41742;52.048;6.092;2022-11-30T13:59:58;7.20;99.90
55812;DHT22;41742;52.048;6.092;2022-11-30T14:13:06;7.20;99.90
55812;DHT22;41742;52.048;6.092;2022-11-30T14:20:57;7.10;99.90
55812;DHT22;41742;52.048;6.092;2022-11-30T14:26:14;7.20;99.90
55812;DHT22;41742;52.048;6.092;2022-11-30T14:28:57;7.10;99.90
55812;DHT22;41742;52.048;6.092;2022-11-30T14:31:27;7.10;99.90
55812;DHT22;41742;52.048;6.092;2022-11-30T14:33:59;7.10;99.90
55812;DHT22;41742;52.048;6.092;2022-11-30T14:36:38;7.10;99.90
55812;DHT22;41742;52.048;6.092;2022-11-30T14:39:26;7.10;99.90
55812;DHT22;41742;52.048;6.092;2022-11-30T14:41:53;7.10;99.90
55812;DHT22;41742;52.048;6.092;2022-11-30T14:44:18;7.00;99.90
55812;DHT22;41742;52.048;6.092;2022-11-30T14:46:44;7.00;99.90
55812;DHT22;41742;52.048;6.092;2022-11-30T14:49:13;7.10;99.90
55812;DHT22;41742;52.048;6.092;2022-11-30T14:51:41;7.10;99.90
55812;DHT22;41742;52.048;6.092;2022-11-30T14:54:25;7.10;99.90
55812;DHT22;41742;52.048;6.092;2022-11-30T14:57:01;7.10;99.90
55812;DHT22;41742;52.048;6.092;2022-11-30T14:59:44;7.10;99.90
55812;DHT22;41742;52.048;6.092;2022-11-30T15:02:18;7.10;99.90
55812;DHT22;41742;52.048;6.092;2022-11-30T15:04:47;7.00;99.90
55812;DHT22;41742;52.048;6.092;2022-11-30T15:07:14;7.10;99.90
55812;DHT22;41742;52.048;6.092;2022-11-30T15:09:42;7.00;99.90
55812;DHT22;41742;52.048;6.092;2022-11-30T15:12:08;7.00;99.90
55812;DHT22;41742;52.048;6.092;2022-11-30T15:14:34;7.00;99.90
55812;DHT22;41742;52.048;6.092;2022-11-30T15:17:00;7.00;99.90
55812;DHT22;41742;52.048;6.092;2022-11-30T15:19:31;7.00;99.90
55812;DHT22;41742;52.048;6.092;2022-11-30T15:21:57;7.00;99.90
55812;DHT22;41742;52.048;6.092;2022-11-30T15:24:24;7.00;99.90
55812;DHT22;41742;52.048;6.092;2022-11-30T15:26:59;7.00;99.90
55812;DHT22;41742;52.048;6.092;2022-11-30T15:29:29;6.90;99.90
55812;DHT22;41742;52.048;6.092;2022-11-30T15:31:57;7.00;99.90
55812;DHT22;41742;52.048;6.092;2022-11-30T15:36:48;6.90;99.90
55812;DHT22;41742;52.048;6.092;2022-11-30T15:39:21;6.90;99.90
55812;DHT22;41742;52.048;6.092;2022-11-30T15:41:53;6.90;99.90
55812;DHT22;41742;52.048;6.092;2022-11-30T15:44:41;6.90;99.90
55812;DHT22;41742;52.048;6.092;2022-11-30T15:47:35;6.90;99.90
55812;DHT22;41742;52.048;6.092;2022-11-30T15:50:23;6.90;99.90
55812;DHT22;41742;52.048;6.092;2022-11-30T15:52:49;6.90;99.90
55812;DHT22;41742;52.048;6.092;2022-11-30T15:55:47;6.90;99.90
55812;DHT22;41742;52.048;6.092;2022-11-30T15:58:25;6.90;99.90
55812;DHT22;41742;52.048;6.092;2022-11-30T16:01:06;6.90;99.90
55812;DHT22;41742;52.048;6.092;2022-11-30T16:03:34;6.90;99.90
55812;DHT22;41742;52.048;6.092;2022-11-30T16:06:02;6.90;99.90
55812;DHT22;41742;52.048;6.092;2022-11-30T16:08:29;6.90;99.90
55812;DHT22;41742;52.048;6.092;2022-11-30T16:10:55;6.90;99.90
55812;DHT22;41742;52.048;6.092;2022-11-30T16:13:21;6.80;99.90
55812;DHT22;41742;52.048;6.092;2022-11-30T16:15:49;6.90;99.90
55812;DHT22;41742;52.048;6.092;2022-11-30T16:18:18;6.90;99.90
55812;DHT22;41742;52.048;6.092;2022-11-30T16:20:58;6.80;99.90
55812;DHT22;41742;52.048;6.092;2022-11-30T16:23:25;6.90;99.90
55812;DHT22;41742;52.048;6.092;2022-11-30T16:25:52;6.90;99.90
55812;DHT22;41742;52.048;6.092;2022-11-30T16:28:19;6.90;99.90
55812;DHT22;41742;52.048;6.092;2022-11-30T16:30:46;6.80;99.90
55812;DHT22;41742;52.048;6.092;2022-11-30T16:33:13;6.80;99.90
55812;DHT22;41742;52.048;6.092;2022-11-30T16:36:06;6.80;99.90
55812;DHT22;41742;52.048;6.092;2022-11-30T16:38:32;6.80;99.90
55812;DHT22;41742;52.048;6.092;2022-11-30T16:41:17;6.80;99.90
55812;DHT22;41742;52.048;6.092;2022-11-30T16:43:44;6.80;99.90
55812;DHT22;41742;52.048;6.092;2022-11-30T16:46:18;6.80;99.90
55812;DHT22;41742;52.048;6.092;2022-11-30T16:48:44;6.80;99.90
55812;DHT22;41742;52.048;6.092;2022-11-30T16:51:15;6.80;99.90
55812;DHT22;41742;52.048;6.092;2022-11-30T16:53:41;6.80;99.90
55812;DHT22;41742;52.048;6.092;2022-11-30T16:56:11;6.80;99.90
55812;DHT22;41742;52.048;6.092;2022-11-30T16:58:37;6.80;99.90
55812;DHT22;41742;52.048;6.092;2022-11-30T17:01:04;6.80;99.90
55812;DHT22;41742;52.048;6.092;2022-11-30T17:03:32;6.70;99.90
55812;DHT22;41742;52.048;6.092;2022-11-30T17:05:58;6.80;99.90
55812;DHT22;41742;52.048;6.092;2022-11-30T17:08:24;6.80;99.90
55812;DHT22;41742;52.048;6.092;2022-11-30T17:10:51;6.80;99.90
55812;DHT22;41742;52.048;6.092;2022-11-30T17:13:17;6.70;99.90
55812;DHT22;41742;52.048;6.092;2022-11-30T17:15:44;6.70;99.90
55812;DHT22;41742;52.048;6.092;2022-11-30T17:18:10;6.70;99.90
55812;DHT22;41742;52.048;6.092;2022-11-30T17:20:36;6.80;99.90
55812;DHT22;41742;52.048;6.092;2022-11-30T17:23:04;6.70;99.90
55812;DHT22;41742;52.048;6.092;2022-11-30T17:25:30;6.70;99.90
55812;DHT22;41742;52.048;6.092;2022-11-30T17:27:55;6.70;99.90
55812;DHT22;41742;52.048;6.092;2022-11-30T17:30:22;6.70;99.90
55812;DHT22;41742;52.048;6.092;2022-11-30T17:32:49;6.70;99.90
55812;DHT22;41742;52.048;6.092;2022-11-30T17:35:18;6.80;99.90
55812;DHT22;41742;52.048;6.092;2022-11-30T17:37:44;6.70;99.90
55812;DHT22;41742;52.048;6.092;2022-11-30T17:40:10;6.70;99.90
55812;DHT22;41742;52.048;6.092;2022-11-30T17:42:40;6.70;99.90
55812;DHT22;41742;52.048;6.092;2022-11-30T17:45:06;6.70;99.90
55812;DHT22;41742;52.048;6.092;2022-11-30T17:47:32;6.80;99.90